Time;durP1;ratioP1;P1;durP2;ratioP2;P2;SDS_P1;SDS_P2;PMS_P1;PMS_P2;Temp;Humidity;BMP_temperature;BMP_pressure;BME280_temperature;BME280_humidity;BME280_pressure;Samples;Min_cycle;Max_cycle;Signal;HPM_P1;HPM_P2
2022/11/05 00:16:42;;;;;;;12.80;8.38;;;;;;;6.00;100.00;101367.44;5048489;28;20478;-50
2022/11/05 00:16:53;;;;;;;13.48;7.80;;;;;;;5.96;100.00;101362.34;5090419;28;20101;-52
2022/11/05 00:19:22;;;;;;;14.07;8.00;;;;;;;5.98;100.00;101371.00;5091630;28;20131;-51
2022/11/05 00:27:21;;;;;;;12.20;7.60;;;;;;;6.11;100.00;101369.66;5093528;28;20055;-52
2022/11/05 00:29:49;;;;;;;16.30;8.30;;;;;;;6.15;100.00;101372.97;5090995;28;20207;-52
2022/11/05 00:32:17;;;;;;;13.18;7.72;;;;;;;6.18;100.00;101376.34;5090641;28;20491;-51
2022/11/05 00:34:47;;;;;;;11.93;7.00;;;;;;;6.22;100.00;101375.31;5092802;28;20140;-47
2022/11/05 00:37:15;;;;;;;13.25;6.75;;;;;;;6.25;100.00;101390.84;5093893;28;20052;-48
2022/11/05 00:39:43;;;;;;;16.98;7.10;;;;;;;6.30;100.00;101379.38;5094241;28;20105;-49
2022/11/05 00:45:00;;;;;;;13.65;6.90;;;;;;;6.45;100.00;101373.56;5093801;28;20040;-49
2022/11/05 00:50:17;;;;;;;12.00;6.32;;;;;;;6.47;100.00;101374.34;5090080;28;20055;-48
2022/11/05 00:52:58;;;;;;;12.77;6.82;;;;;;;6.48;100.00;101381.28;5090494;28;20052;-51
2022/11/05 00:55:32;;;;;;;13.93;6.15;;;;;;;6.47;100.00;101384.78;5089365;28;20474;-52
2022/11/05 00:58:02;;;;;;;12.73;6.47;;;;;;;6.47;100.00;101384.78;5090454;28;21044;-53
2022/11/05 01:00:32;;;;;;;11.38;6.43;;;;;;;6.51;100.00;101386.38;5090352;28;20048;-49
2022/11/05 01:03:01;;;;;;;11.98;6.03;;;;;;;6.48;100.00;101391.72;5092578;28;20331;-48
2022/11/05 01:05:32;;;;;;;10.35;5.25;;;;;;;6.50;100.00;101384.66;5088364;28;20051;-52
2022/11/05 01:08:01;;;;;;;10.88;5.78;;;;;;;6.48;100.00;101385.66;5091272;28;20101;-51
2022/11/05 01:10:29;;;;;;;11.52;6.00;;;;;;;6.56;100.00;101391.44;5093287;28;20044;-51
2022/11/05 01:12:58;;;;;;;11.27;5.95;;;;;;;6.59;100.00;101391.31;5090393;28;20115;-53
2022/11/05 01:15:26;;;;;;;11.55;5.68;;;;;;;6.62;100.00;101399.03;5090848;28;20501;-51
2022/11/05 01:17:54;;;;;;;12.10;5.95;;;;;;;6.59;100.00;101399.16;5093148;28;20040;-52
2022/11/05 01:20:22;;;;;;;9.32;5.35;;;;;;;6.59;100.00;101400.00;5092007;28;20052;-50
2022/11/05 01:22:52;;;;;;;10.23;5.55;;;;;;;6.50;100.00;101395.13;5093175;28;20148;-49
2022/11/05 01:25:20;;;;;;;9.98;5.57;;;;;;;6.48;100.00;101401.34;5089781;28;20048;-50
2022/11/05 01:27:48;;;;;;;9.95;5.82;;;;;;;6.47;100.00;101405.69;5090481;28;20207;-51
2022/11/05 01:30:16;;;;;;;7.90;5.28;;;;;;;6.48;100.00;101411.78;5092966;28;20036;-51
2022/11/05 01:32:44;;;;;;;11.05;4.85;;;;;;;6.42;100.00;101403.28;5090891;28;20375;-50
2022/11/05 01:35:15;;;;;;;9.27;5.07;;;;;;;6.37;100.00;101409.59;5089440;28;20458;-51
2022/11/05 01:37:44;;;;;;;8.70;5.30;;;;;;;6.35;100.00;101414.84;5092341;28;20048;-49
2022/11/05 01:40:20;;;;;;;9.60;5.53;;;;;;;6.39;100.00;101413.84;5092722;28;20047;-50
2022/11/05 01:42:48;;;;;;;10.30;5.47;;;;;;;6.31;100.00;101408.03;5091704;28;20491;-49
2022/11/05 01:45:20;;;;;;;12.27;6.03;;;;;;;6.29;100.00;101411.66;5089161;28;20043;-50
2022/11/05 01:47:55;;;;;;;10.82;5.68;;;;;;;6.24;100.00;101407.47;5091301;28;20040;-49
2022/11/05 01:50:30;;;;;;;11.77;5.57;;;;;;;6.22;100.00;101417.09;5092381;28;20047;-50
2022/11/05 01:53:05;;;;;;;9.02;5.00;;;;;;;6.16;100.00;101417.34;5092117;28;20063;-52
2022/11/05 01:55:39;;;;;;;10.40;5.03;;;;;;;6.13;100.00;101425.28;5091318;28;20101;-52
2022/11/05 01:58:11;;;;;;;11.65;6.00;;;;;;;6.08;100.00;101412.41;5092590;28;20514;-52
2022/11/05 02:00:41;;;;;;;13.57;6.32;;;;;;;6.01;100.00;101423.13;5089855;28;20055;-51
2022/11/05 02:03:10;;;;;;;16.35;7.60;;;;;;;6.01;100.00;101417.91;5089450;28;20098;-50
2022/11/05 02:05:40;;;;;;;13.90;7.20;;;;;;;5.99;100.00;101423.19;5088397;28;20040;-49
2022/11/05 02:08:15;;;;;;;13.38;7.05;;;;;;;5.92;100.00;101419.06;5088770;28;20567;-51
2022/11/05 02:10:45;;;;;;;16.77;7.53;;;;;;;5.89;100.00;101419.16;5089509;28;20060;-51
2022/11/05 02:13:14;;;;;;;14.50;7.00;;;;;;;5.97;100.00;101416.28;5088355;28;20051;-50
2022/11/05 02:15:51;;;;;;;15.18;7.57;;;;;;;5.91;100.00;101417.34;5089014;28;20505;-49
2022/11/05 02:18:30;;;;;;;12.45;6.93;;;;;;;5.86;100.00;101416.66;5088500;28;20074;-49
2022/11/05 02:21:14;;;;;;;11.35;6.30;;;;;;;5.88;100.00;101409.63;5089283;28;20108;-48
2022/11/05 02:24:11;;;;;;;11.20;6.30;;;;;;;5.76;100.00;101403.94;5088042;28;20502;-50
2022/11/05 02:27:11;;;;;;;14.65;6.28;;;;;;;5.80;100.00;101404.69;5091151;28;20082;-50
2022/11/05 02:30:05;;;;;;;11.82;6.70;;;;;;;5.75;100.00;101407.47;5090072;28;20051;-52
2022/11/05 02:32:48;;;;;;;13.05;6.53;;;;;;;5.75;100.00;101399.63;5088386;28;20074;-51
2022/11/05 02:35:29;;;;;;;10.88;6.00;;;;;;;5.75;100.00;101409.22;5088516;28;20056;-51
2022/11/05 02:38:06;;;;;;;13.20;6.20;;;;;;;5.70;100.00;101403.28;5089391;28;20528;-51
2022/11/05 02:40:44;;;;;;;9.80;5.55;;;;;;;5.56;100.00;101404.66;5088346;28;20052;-50
2022/11/05 02:43:21;;;;;;;10.55;5.60;;;;;;;5.55;100.00;101404.72;5088621;28;20043;-49
2022/11/05 02:46:02;;;;;;;9.65;6.05;;;;;;;5.56;100.00;101399.44;5088482;28;20372;-49
2022/11/05 02:48:43;;;;;;;9.23;5.38;;;;;;;5.51;100.00;101401.34;5089274;28;20048;-52
2022/11/05 02:51:21;;;;;;;10.85;5.85;;;;;;;5.49;100.00;101400.53;5091403;28;20760;-48
2022/11/05 02:53:57;;;;;;;11.40;6.15;;;;;;;5.45;100.00;101398.09;5087914;28;20052;-52
2022/11/05 02:56:30;;;;;;;11.93;6.75;;;;;;;5.45;100.00;101401.56;5088660;28;20040;-50
2022/11/05 02:58:59;;;;;;;10.32;6.22;;;;;;;5.36;100.00;101397.53;5088963;28;20047;-52
2022/11/05 03:01:27;;;;;;;11.20;5.93;;;;;;;5.46;100.00;101395.44;5089027;28;20127;-51
2022/11/05 03:03:59;;;;;;;11.95;5.97;;;;;;;5.37;100.00;101394.03;5088124;28;20040;-53
2022/11/05 03:07:01;;;;;;;9.10;5.25;;;;;;;5.33;100.00;101391.56;5088475;28;20499;-53
2022/11/05 03:09:45;;;;;;;11.70;5.95;;;;;;;5.24;100.00;101401.38;5054628;28;20051;-51
2022/11/05 03:12:25;;;;;;;10.43;5.30;;;;;;;5.27;100.00;101400.44;5088792;28;20124;-49
2022/11/05 03:15:00;;;;;;;9.57;5.53;;;;;;;5.23;100.00;101402.28;5091189;28;20051;-53
2022/11/05 03:17:37;;;;;;;8.95;5.00;;;;;;;5.25;100.00;101405.72;5091419;28;20036;-51
2022/11/05 03:20:19;;;;;;;8.90;4.93;;;;;;;5.16;100.00;101402.56;5088230;28;20811;-50
2022/11/05 03:22:53;;;;;;;11.13;5.35;;;;;;;5.18;100.00;101406.84;5089457;28;20135;-53
2022/11/05 03:25:24;;;;;;;9.40;5.45;;;;;;;5.11;100.00;101405.31;5090012;28;20105;-50
2022/11/05 03:27:58;;;;;;;9.38;5.20;;;;;;;5.13;100.00;101400.91;5088582;28;20460;-50
2022/11/05 03:30:26;;;;;;;11.45;5.30;;;;;;;5.19;100.00;101398.09;5094118;28;20490;-46
2022/11/05 03:32:58;;;;;;;7.95;5.20;;;;;;;5.07;100.00;101395.88;5095078;28;20506;-50
2022/11/05 03:35:31;;;;;;;9.75;5.10;;;;;;;5.05;100.00;101395.09;5093561;28;20101;-53
2022/11/05 03:38:02;;;;;;;;;;;;;;;5.07;100.00;101404.59;5092548;28;20425;-51
2022/11/05 03:40:35;;;;;;;8.70;4.93;;;;;;;5.04;100.00;101401.22;5091046;28;19931;-48
2022/11/05 03:43:05;;;;;;;;;;;;;;;4.99;100.00;101405.72;5092403;28;20048;-50
2022/11/05 03:45:37;;;;;;;6.85;3.63;;;;;;;4.97;100.00;101407.53;5090772;28;19930;-50
2022/11/05 03:48:07;;;;;;;8.45;4.45;;;;;;;4.99;100.00;101403.09;5095107;28;20085;-50
2022/11/05 03:50:43;;;;;;;8.52;4.43;;;;;;;4.97;100.00;101410.16;5094814;28;20075;-51
2022/11/05 03:53:15;;;;;;;9.23;4.65;;;;;;;4.98;100.00;101414.47;5094913;28;20544;-51
2022/11/05 03:55:55;;;;;;;7.50;4.57;;;;;;;4.89;100.00;101413.88;5091532;28;20498;-52
2022/11/05 03:58:24;;;;;;;8.48;4.68;;;;;;;4.93;100.00;101417.19;5092588;28;20464;-51
2022/11/05 04:00:52;;;;;;;8.68;4.72;;;;;;;4.93;100.00;101421.56;5093035;28;20131;-54
2022/11/05 04:03:20;;;;;;;8.80;4.40;;;;;;;4.83;100.00;101424.47;5090887;28;20094;-53
2022/11/05 04:14:03;;;;;;;6.72;4.03;;;;;;;4.69;100.00;101430.13;5091882;28;20075;-54
2022/11/05 04:24:07;;;;;;;9.50;3.90;;;;;;;4.74;100.00;101424.75;5091175;28;20131;-51
2022/11/05 04:24:52;;;;;;;9.60;3.38;;;;;;;4.77;100.00;101431.63;5089937;28;20052;-50
2022/11/05 04:27:20;;;;;;;7.78;3.70;;;;;;;4.65;100.00;101428.50;5090056;28;20135;-49
2022/11/05 04:32:39;;;;;;;7.68;3.38;;;;;;;4.61;100.00;101436.44;5090374;28;20194;-50
2022/11/05 04:35:07;;;;;;;8.43;3.63;;;;;;;4.59;100.00;101433.06;5093722;28;20101;-47
2022/11/05 04:37:36;;;;;;;8.35;3.22;;;;;;;4.64;100.00;101439.00;5094204;28;20127;-47
2022/11/05 04:40:07;;;;;;;9.68;3.75;;;;;;;4.54;100.00;101446.22;5095423;28;20083;-48
2022/11/05 04:42:35;;;;;;;8.25;3.72;;;;;;;4.51;100.00;101452.38;5093160;28;20073;-49
2022/11/05 04:45:03;;;;;;;8.38;3.70;;;;;;;4.43;100.00;101445.69;5110763;28;20067;-47
2022/11/05 04:47:31;;;;;;;9.15;4.40;;;;;;;4.43;100.00;101443.94;5098359;28;20047;-47
2022/11/05 04:50:00;;;;;;;7.53;3.38;;;;;;;4.42;100.00;101444.84;5105035;28;20093;-48
2022/11/05 04:52:28;;;;;;;10.25;4.35;;;;;;;4.42;100.00;101447.44;5093304;28;20044;-47
2022/11/05 04:54:57;;;;;;;7.82;4.20;;;;;;;4.40;100.00;101451.84;5102334;28;20101;-47
2022/11/05 04:57:27;;;;;;;7.07;4.32;;;;;;;4.41;100.00;101445.72;5100587;28;20050;-47
2022/11/05 04:59:56;;;;;;;7.20;4.07;;;;;;;4.40;100.00;101450.09;5093988;28;20055;-49
2022/11/05 05:02:26;;;;;;;6.85;4.10;;;;;;;4.39;100.00;101443.19;5106067;28;20563;-51
2022/11/05 05:04:54;;;;;;;7.93;3.65;;;;;;;4.33;100.00;101448.56;5095432;28;20462;-51
2022/11/05 05:07:22;;;;;;;8.90;4.47;;;;;;;4.32;100.00;101453.81;5099945;28;20764;-47
2022/11/05 05:09:50;;;;;;;9.73;4.65;;;;;;;4.38;100.00;101451.03;5102212;28;20444;-48
2022/11/05 05:12:28;;;;;;;7.72;4.28;;;;;;;4.33;100.00;101456.38;5092676;28;20050;-47
2022/11/05 05:14:59;;;;;;;8.80;4.30;;;;;;;4.34;100.00;101462.44;5101972;28;20056;-50
2022/11/05 05:17:27;;;;;;;7.45;4.28;;;;;;;4.32;100.00;101470.31;5099158;28;20048;-47
2022/11/05 05:22:50;;;;;;;7.45;3.95;;;;;;;4.19;100.00;101477.59;5093514;28;20042;-47
2022/11/05 05:25:19;;;;;;;8.80;4.07;;;;;;;4.27;100.00;101471.31;5107089;28;20085;-48
2022/11/05 05:27:48;;;;;;;9.40;4.70;;;;;;;4.21;100.00;101477.56;5096266;28;20443;-49
2022/11/05 05:30:17;;;;;;;8.35;4.13;;;;;;;4.17;100.00;101474.19;5105615;28;20047;-47
2022/11/05 05:32:45;;;;;;;8.57;4.60;;;;;;;4.25;100.00;101478.34;5093895;28;20046;-51
2022/11/05 05:35:14;;;;;;;9.70;4.50;;;;;;;4.23;100.00;101475.78;5100176;28;20110;-48
2022/11/05 05:37:44;;;;;;;8.10;4.47;;;;;;;4.23;100.00;101483.59;5102264;28;20043;-48
2022/11/05 05:40:13;;;;;;;8.77;4.85;;;;;;;4.10;100.00;101477.84;5105694;28;20044;-50
2022/11/05 05:42:43;;;;;;;9.95;4.78;;;;;;;4.17;100.00;101476.81;5093712;28;20035;-47
2022/11/05 05:45:16;;;;;;;10.45;5.50;;;;;;;4.09;100.00;101480.50;5099665;28;20091;-48
2022/11/05 05:47:44;;;;;;;11.45;5.13;;;;;;;4.13;100.00;101488.22;5101991;28;20035;-47
2022/11/05 05:50:14;;;;;;;10.52;5.38;;;;;;;4.07;100.00;101481.41;5091711;28;20117;-51
2022/11/05 05:52:42;;;;;;;9.27;5.35;;;;;;;4.06;100.00;101474.50;5104319;28;20784;-49
2022/11/05 05:55:11;;;;;;;9.73;5.10;;;;;;;4.02;100.00;101477.22;5096644;28;20043;-48
2022/11/05 05:57:39;;;;;;;9.15;5.03;;;;;;;3.96;100.00;101485.22;5109502;28;20122;-50
2022/11/05 06:00:09;;;;;;;8.52;5.38;;;;;;;3.91;100.00;101481.88;5092773;28;20628;-51
2022/11/05 06:02:39;;;;;;;10.48;5.47;;;;;;;3.89;100.00;101477.56;5092452;28;20063;-47
2022/11/05 06:05:08;;;;;;;10.00;5.30;;;;;;;3.97;100.00;101477.34;5108192;28;20048;-46
2022/11/05 06:07:37;;;;;;;9.25;5.38;;;;;;;3.87;100.00;101473.28;5097016;28;20089;-46
2022/11/05 06:10:06;;;;;;;8.30;4.82;;;;;;;3.85;100.00;101470.72;5103987;28;20062;-48
2022/11/05 06:12:34;;;;;;;10.57;5.20;;;;;;;3.87;100.00;101476.75;5091563;28;20053;-49
2022/11/05 06:15:03;;;;;;;9.75;5.32;;;;;;;3.86;100.00;101472.44;5100697;28;20089;-48
2022/11/05 06:17:33;;;;;;;10.80;5.65;;;;;;;3.95;100.00;101483.50;5099076;28;20055;-48
2022/11/05 06:20:03;;;;;;;11.10;5.65;;;;;;;3.90;100.00;101470.63;5093044;28;20059;-51
2022/11/05 06:22:32;;;;;;;9.20;5.43;;;;;;;3.88;100.00;101482.81;5104087;28;20055;-48
2022/11/05 06:25:00;;;;;;;11.68;5.63;;;;;;;3.91;100.00;101476.66;5094855;28;20980;-50
2022/11/05 06:27:29;;;;;;;11.23;5.32;;;;;;;3.91;100.00;101487.06;5097658;28;20040;-49
2022/11/05 06:29:57;;;;;;;9.68;6.15;;;;;;;3.91;100.00;101487.91;5102998;28;20059;-51
2022/11/05 06:32:25;;;;;;;9.80;5.88;;;;;;;3.92;100.00;101486.19;5091447;28;20498;-51
2022/11/05 06:34:54;;;;;;;11.35;5.47;;;;;;;3.89;100.00;101487.97;5101870;28;20115;-47
2022/11/05 06:37:23;;;;;;;13.38;5.53;;;;;;;3.93;100.00;101485.28;5098399;28;20046;-50
2022/11/05 06:39:51;;;;;;;11.70;6.15;;;;;;;3.85;100.00;101480.28;5107581;28;20070;-50
2022/11/05 06:42:19;;;;;;;13.05;7.60;;;;;;;3.86;100.00;101482.00;5108825;28;20042;-49
2022/11/05 06:44:47;;;;;;;11.32;7.25;;;;;;;3.87;100.00;101487.16;5111952;28;20139;-48
2022/11/05 06:47:16;;;;;;;15.45;8.40;;;;;;;3.85;100.00;101491.53;5112626;28;20447;-50
2022/11/05 06:49:44;;;;;;;15.75;9.90;;;;;;;3.87;100.00;101505.38;5112408;28;20444;-49
2022/11/05 06:52:13;;;;;;;13.05;8.27;;;;;;;3.84;100.00;101508.03;5112153;28;20048;-47
2022/11/05 06:54:43;;;;;;;12.82;8.00;;;;;;;3.89;100.00;101498.38;5112480;28;20035;-49
2022/11/05 06:57:12;;;;;;;14.25;7.75;;;;;;;3.91;100.00;101521.75;5112325;28;20108;-48
2022/11/05 06:59:41;;;;;;;21.23;8.13;;;;;;;3.97;100.00;101523.38;5112457;28;20563;-47
2022/11/05 07:02:12;;;;;;;12.07;7.20;;;;;;;3.88;100.00;101520.06;5112341;28;20078;-49
2022/11/05 07:04:40;;;;;;;11.38;6.53;;;;;;;3.90;100.00;101527.88;5114329;28;20047;-49
2022/11/05 07:07:08;;;;;;;11.23;6.90;;;;;;;3.95;100.00;101530.34;5116194;28;20481;-48
2022/11/05 07:09:39;;;;;;;12.45;7.18;;;;;;;4.07;100.00;101530.84;5116115;28;20040;-50
2022/11/05 07:12:09;;;;;;;12.20;6.72;;;;;;;4.16;100.00;101531.50;5115622;28;20051;-47
2022/11/05 07:14:37;;;;;;;10.95;6.55;;;;;;;4.33;100.00;101526.69;5115446;28;20494;-50
2022/11/05 07:17:05;;;;;;;13.32;7.45;;;;;;;4.41;100.00;101529.09;5116105;28;20060;-51
2022/11/05 07:19:33;;;;;;;10.82;7.45;;;;;;;4.52;100.00;101532.22;5112706;28;20410;-49
2022/11/05 07:22:01;;;;;;;11.38;6.97;;;;;;;4.62;100.00;101539.78;5112913;28;20043;-48
2022/11/05 07:24:31;;;;;;;11.90;6.78;;;;;;;4.78;100.00;101543.63;5115544;28;20075;-49
2022/11/05 07:26:59;;;;;;;10.48;6.43;;;;;;;4.91;100.00;101542.38;5114724;28;20044;-47
2022/11/05 07:29:29;;;;;;;12.45;8.05;;;;;;;5.12;100.00;101547.00;5115815;28;20046;-47
2022/11/05 07:31:57;;;;;;;12.35;7.18;;;;;;;5.34;100.00;101547.16;5115757;28;20073;-50
2022/11/05 07:34:25;;;;;;;13.90;7.32;;;;;;;5.54;100.00;101541.31;5115685;28;20047;-46
2022/11/05 07:36:53;;;;;;;11.43;7.43;;;;;;;5.58;100.00;101540.31;5115711;27;20043;-47
2022/11/05 07:39:22;;;;;;;10.60;6.88;;;;;;;5.74;100.00;101543.25;5114001;28;20051;-49
2022/11/05 07:41:52;;;;;;;12.45;7.60;;;;;;;5.89;100.00;101542.72;5111964;28;20118;-50
2022/11/05 07:44:20;;;;;;;13.55;7.28;;;;;;;6.02;100.00;101547.56;5112009;27;20078;-48
2022/11/05 07:46:50;;;;;;;14.05;7.95;;;;;;;6.24;100.00;101551.13;5111037;27;20393;-49
2022/11/05 07:49:18;;;;;;;13.80;8.13;;;;;;;6.34;100.00;101550.78;5115639;28;20566;-48
2022/11/05 07:51:46;;;;;;;16.92;8.02;;;;;;;6.45;100.00;101542.53;5115371;27;20122;-47
2022/11/05 07:54:14;;;;;;;13.07;8.32;;;;;;;6.59;100.00;101546.34;5115425;27;20047;-50
2022/11/05 07:56:43;;;;;;;13.02;8.48;;;;;;;6.83;100.00;101548.09;5115399;28;20142;-48
2022/11/05 07:59:11;;;;;;;14.48;8.13;;;;;;;6.98;100.00;101552.75;5115387;28;20088;-48
2022/11/05 08:01:43;;;;;;;14.20;8.90;;;;;;;7.14;100.00;101546.94;5114398;27;20039;-50
2022/11/05 08:04:13;;;;;;;12.15;8.63;;;;;;;7.28;100.00;101550.69;5110920;28;20052;-50
2022/11/05 08:06:41;;;;;;;12.68;9.05;;;;;;;7.56;100.00;101562.66;5113112;28;20081;-49
2022/11/05 08:09:09;;;;;;;13.57;8.13;;;;;;;7.59;100.00;101559.06;5115314;28;20542;-47
2022/11/05 08:11:37;;;;;;;11.82;8.43;;;;;;;7.72;100.00;101554.19;5113604;28;20059;-47
2022/11/05 08:14:05;;;;;;;13.77;8.60;;;;;;;7.81;100.00;101556.38;5115025;28;20055;-47
2022/11/05 08:16:33;;;;;;;12.50;9.02;;;;;;;7.81;100.00;101551.16;5114384;28;20077;-47
2022/11/05 08:19:04;;;;;;;13.50;7.70;;;;;;;7.94;100.00;101556.75;5112938;28;20490;-47
2022/11/05 08:21:33;;;;;;;15.68;8.50;;;;;;;8.06;100.00;101558.00;5114515;28;20050;-47
2022/11/05 08:24:02;;;;;;;15.73;8.65;;;;;;;8.10;100.00;101554.31;5114564;28;20382;-47
2022/11/05 08:26:30;;;;;;;13.45;8.77;;;;;;;7.98;100.00;101554.84;5114537;28;20043;-48
2022/11/05 08:28:59;;;;;;;12.35;7.80;;;;;;;8.19;100.00;101553.91;5114753;28;20047;-50
2022/11/05 08:31:27;;;;;;;12.15;8.45;;;;;;;8.23;100.00;101541.53;5114660;28;20047;-49
2022/11/05 08:33:55;;;;;;;15.27;8.05;;;;;;;8.25;100.00;101552.81;5113345;28;20047;-49
2022/11/05 08:36:30;;;;;;;12.20;7.72;;;;;;;8.37;100.00;101554.88;5114632;27;20046;-47
2022/11/05 08:38:59;;;;;;;19.35;8.77;;;;;;;8.44;100.00;101544.97;5113195;28;20055;-48
2022/11/05 08:41:27;;;;;;;13.30;8.30;;;;;;;8.43;100.00;101548.50;5114221;28;20059;-48
2022/11/05 08:43:56;;;;;;;13.07;8.27;;;;;;;8.61;100.00;101544.22;5114187;28;20130;-51
2022/11/05 08:46:24;;;;;;;13.27;8.68;;;;;;;8.48;100.00;101548.31;5114362;28;20046;-50
2022/11/05 08:48:52;;;;;;;11.93;8.02;;;;;;;8.54;100.00;101548.06;5111528;28;20078;-51
2022/11/05 08:51:20;;;;;;;12.32;7.70;;;;;;;8.41;100.00;101548.56;5110439;27;20051;-50
2022/11/05 08:53:48;;;;;;;12.93;8.18;;;;;;;8.50;100.00;101555.19;5114355;28;20047;-52
2022/11/05 08:56:18;;;;;;;10.55;7.72;;;;;;;8.66;100.00;101550.13;5114217;28;20127;-52
2022/11/05 08:58:46;;;;;;;14.95;7.93;;;;;;;8.73;100.00;101555.94;5114066;28;20042;-52
2022/11/05 09:01:14;;;;;;;16.70;8.45;;;;;;;8.78;100.00;101556.53;5114284;28;20067;-51
2022/11/05 09:03:43;;;;;;;13.95;7.93;;;;;;;8.79;100.00;101556.50;5113787;28;20071;-50
2022/11/05 09:06:11;;;;;;;13.68;8.05;;;;;;;8.85;100.00;101552.75;5113850;28;20108;-51
2022/11/05 09:08:39;;;;;;;11.93;7.72;;;;;;;8.93;100.00;101552.34;5113932;28;20071;-53
2022/11/05 09:11:07;;;;;;;13.18;7.63;;;;;;;8.95;100.00;101558.41;5113836;27;20055;-53
2022/11/05 09:13:37;;;;;;;11.05;6.93;;;;;;;9.02;100.00;101561.59;5113307;28;20048;-50
2022/11/05 09:16:05;;;;;;;11.25;7.13;;;;;;;9.12;100.00;101554.97;5113094;28;20044;-53
2022/11/05 09:18:33;;;;;;;11.35;7.13;;;;;;;9.26;100.00;101551.69;5113013;28;20043;-52
2022/11/05 09:21:02;;;;;;;11.70;7.63;;;;;;;9.30;100.00;101559.34;5113553;28;20417;-54
2022/11/05 09:23:31;;;;;;;12.30;7.03;;;;;;;9.38;100.00;101560.72;5111404;28;20506;-50
2022/11/05 09:25:59;;;;;;;11.68;6.93;;;;;;;9.62;100.00;101559.53;5109875;28;20051;-51
2022/11/05 09:28:27;;;;;;;14.18;7.25;;;;;;;9.76;100.00;101565.88;5111181;28;20516;-53
2022/11/05 09:30:57;;;;;;;14.57;7.35;;;;;;;9.96;100.00;101565.72;5113056;28;20043;-50
2022/11/05 09:33:26;;;;;;;11.93;6.70;;;;;;;10.13;100.00;101571.91;5112539;28;20052;-51
2022/11/05 09:35:54;;;;;;;11.23;6.57;;;;;;;10.52;100.00;101570.75;5108307;28;20036;-52
2022/11/05 09:38:22;;;;;;;11.40;6.88;;;;;;;10.85;100.00;101577.75;5108795;28;20051;-54
2022/11/05 09:40:56;;;;;;;11.70;5.95;;;;;;;11.02;100.00;101568.09;5111875;28;20039;-50
2022/11/05 09:43:30;;;;;;;13.05;6.13;;;;;;;11.28;100.00;101574.53;5110127;28;20071;-54
2022/11/05 09:46:04;;;;;;;11.05;5.53;;;;;;;11.52;100.00;101577.56;5110113;28;20141;-53
2022/11/05 09:48:34;;;;;;;10.60;5.90;;;;;;;11.42;100.00;101582.47;5113039;28;20501;-53
2022/11/05 09:51:04;;;;;;;69.63;14.48;;;;;;;11.88;100.00;101581.63;5111267;28;20043;-53
2022/11/05 09:53:40;;;;;;;18.85;6.28;;;;;;;12.00;100.00;101582.72;5109053;28;20085;-51
2022/11/05 09:56:20;;;;;;;19.25;6.45;;;;;;;12.40;100.00;101582.09;5112853;28;20402;-54
2022/11/05 09:58:53;;;;;;;21.88;6.63;;;;;;;12.45;100.00;101582.66;5113156;28;20055;-54
2022/11/05 10:01:26;;;;;;;11.25;5.68;;;;;;;12.57;100.00;101579.28;5111756;28;20055;-54
2022/11/05 10:03:58;;;;;;;9.05;5.20;;;;;;;12.78;100.00;101587.63;5112756;28;20059;-52
2022/11/05 10:06:27;;;;;;;12.68;5.13;;;;;;;13.06;100.00;101587.69;5112156;28;20043;-53
2022/11/05 10:09:02;;;;;;;9.07;5.00;;;;;;;13.32;100.00;101588.63;5112244;28;20393;-51
2022/11/05 10:11:36;;;;;;;10.25;5.60;;;;;;;13.31;100.00;101594.88;5112317;28;20505;-53
2022/11/05 10:14:16;;;;;;;11.40;5.47;;;;;;;13.34;100.00;101592.88;5112717;28;20067;-50
2022/11/05 10:16:52;;;;;;;10.80;5.05;;;;;;;13.00;100.00;101589.75;5112748;28;20065;-50
2022/11/05 10:19:24;;;;;;;11.52;5.30;;;;;;;13.13;100.00;101588.97;5112706;28;20502;-53
2022/11/05 10:21:55;;;;;;;12.52;5.13;;;;;;;13.56;100.00;101586.22;5112990;28;20374;-54
2022/11/05 10:24:42;;;;;;;9.93;5.20;;;;;;;13.64;100.00;101593.66;5112445;28;20058;-53
2022/11/05 10:27:16;;;;;;;8.60;4.78;;;;;;;13.64;100.00;101593.66;5112502;28;20047;-54
2022/11/05 10:29:45;;;;;;;10.48;5.55;;;;;;;13.72;100.00;101599.28;5112781;28;20097;-53
2022/11/05 10:32:23;;;;;;;8.52;5.30;;;;;;;14.05;100.00;101594.47;5112471;28;20046;-52
2022/11/05 10:34:54;;;;;;;10.68;4.80;;;;;;;14.28;100.00;101595.53;5112713;28;20422;-54
2022/11/05 10:37:24;;;;;;;11.15;5.28;;;;;;;14.32;100.00;101589.91;5112751;28;20441;-55
2022/11/05 10:39:52;;;;;;;17.83;6.60;;;;;;;14.61;100.00;101586.19;5115697;28;20051;-53
2022/11/05 10:42:46;;;;;;;14.98;5.53;;;;;;;14.94;100.00;101596.19;5116946;28;20071;-53
2022/11/05 10:45:28;;;;;;;9.60;4.47;;;;;;;14.75;100.00;101590.53;5116663;28;20051;-55
2022/11/05 10:48:09;;;;;;;55.08;11.70;;;;;;;14.54;100.00;101588.41;5116949;28;20482;-53
2022/11/05 10:50:38;;;;;;;11.45;5.10;;;;;;;14.40;100.00;101588.53;5112926;28;20521;-53
2022/11/05 10:53:14;;;;;;;10.95;4.82;;;;;;;14.29;100.00;101586.63;5114245;28;20036;-51
2022/11/05 10:55:46;;;;;;;10.57;4.90;;;;;;;14.03;100.00;101586.63;5116483;28;20578;-52
2022/11/05 10:58:21;;;;;;;74.00;16.77;;;;;;;14.25;100.00;101590.44;5116442;28;20046;-52
2022/11/05 11:01:06;;;;;;;18.23;5.97;;;;;;;13.91;100.00;101592.75;5112529;28;20048;-51
2022/11/05 11:03:41;;;;;;;52.00;10.13;;;;;;;13.94;100.00;101585.44;5110864;28;20109;-52
2022/11/05 11:06:20;;;;;;;44.50;11.88;;;;;;;13.64;100.00;101583.91;5112921;28;20040;-56
2022/11/05 11:08:50;;;;;;;12.10;4.88;;;;;;;13.16;100.00;101579.06;5115455;28;20048;-56
2022/11/05 11:11:34;;;;;;;48.00;9.02;;;;;;;13.17;100.00;101583.41;5116024;28;20036;-56
2022/11/05 11:14:05;;;;;;;16.75;5.68;;;;;;;13.28;100.00;101581.84;5114894;28;20426;-55
2022/11/05 11:16:37;;;;;;;56.65;10.60;;;;;;;13.24;100.00;101586.50;5111762;28;20096;-56
2022/11/05 11:19:26;;;;;;;61.10;13.13;;;;;;;13.25;100.00;101587.34;5112591;28;20332;-56
2022/11/05 11:22:18;;;;;;;12.77;5.35;;;;;;;13.07;100.00;101597.28;5112879;27;20163;-52
2022/11/05 11:24:48;;;;;;;66.15;9.38;;;;;;;12.93;100.00;101592.91;5113215;27;20380;-51
2022/11/05 11:27:22;;;;;;;27.85;7.38;;;;;;;13.19;100.00;101593.88;5112612;28;20052;-51
2022/11/05 11:29:56;;;;;;;17.60;5.85;;;;;;;13.04;100.00;101589.59;5114978;28;20043;-53
2022/11/05 11:32:28;;;;;;;11.25;4.90;;;;;;;13.17;100.00;101586.06;5115317;28;20054;-53
2022/11/05 11:34:57;;;;;;;9.63;4.45;;;;;;;12.98;100.00;101596.09;5115025;28;20040;-51
2022/11/05 11:37:29;;;;;;;10.80;4.50;;;;;;;12.89;100.00;101594.88;5115747;28;20467;-53
2022/11/05 11:40:04;;;;;;;10.15;4.50;;;;;;;12.92;100.00;101596.47;5115650;28;20089;-52
2022/11/05 11:42:35;;;;;;;9.18;4.53;;;;;;;13.02;100.00;101592.31;5115522;28;20051;-54
2022/11/05 11:45:11;;;;;;;8.65;4.38;;;;;;;12.92;100.00;101592.03;5115466;28;20104;-53
2022/11/05 11:47:43;;;;;;;9.45;4.95;;;;;;;12.90;100.00;101590.44;5115501;28;20040;-53
2022/11/05 11:50:34;;;;;;;9.48;4.20;;;;;;;12.78;100.00;101592.06;5113365;28;20047;-53
2022/11/05 11:53:17;;;;;;;10.70;4.50;;;;;;;12.89;100.00;101589.59;5112264;28;20079;-55
2022/11/05 11:55:59;;;;;;;9.20;4.47;;;;;;;12.68;100.00;101587.34;5111642;28;20105;-52
2022/11/05 11:58:41;;;;;;;11.05;4.35;;;;;;;12.72;100.00;101581.88;5111859;28;20039;-50
2022/11/05 12:01:51;;;;;;;9.95;4.05;;;;;;;12.63;100.00;101589.44;5114532;28;20044;-53
2022/11/05 12:04:40;;;;;;;8.52;4.10;;;;;;;12.67;100.00;101588.28;5115059;28;20040;-52
2022/11/05 12:07:32;;;;;;;9.98;4.30;;;;;;;12.61;100.00;101578.13;5115029;28;20096;-53
2022/11/05 12:10:18;;;;;;;9.57;4.20;;;;;;;12.73;100.00;101581.78;5113896;28;20078;-55
2022/11/05 12:12:59;;;;;;;9.40;4.45;;;;;;;12.77;100.00;101577.16;5111227;28;20051;-53
2022/11/05 12:15:44;;;;;;;9.60;4.03;;;;;;;12.60;100.00;101581.72;5113892;28;20051;-54
2022/11/05 12:18:24;;;;;;;8.90;4.00;;;;;;;12.56;100.00;101576.72;5114941;28;20035;-54
2022/11/05 12:21:15;;;;;;;9.82;3.80;;;;;;;12.66;100.00;101580.47;5114773;28;20032;-53
2022/11/05 12:24:18;;;;;;;9.20;3.78;;;;;;;12.72;100.00;101585.38;5114603;28;20101;-52
2022/11/05 12:26:58;;;;;;;9.30;4.00;;;;;;;12.50;100.00;101578.81;5114767;28;20044;-53